Terminal Aerodrome Forecast
Issued by NWS

Home | Current Version | Previous Version | Graphics & Text | Print | Product List | Glossary On
Versions: 1 2 3 4 5 6 7 8 9 10 11 12 13 14 15 16 17 18 19 20 21 22 23 24 25
488
FTUS43 KFGF 131340 AAA
TAFBJI
TAF AMD
KBJI 131340Z 1314/1412 32013KT 5SM BR OVC004
     FM131500 33015G23KT P6SM OVC008
     FM132300 34010KT P6SM BKN015=

USA.gov is the U.S. government's official web portal to all federal, state and local government web resources and services.